Latest Weather Observations for Walpole North

IDW60801

Issued at 5:02 pm WST Monday 25 May 2015 (issued every 30 minutes, with the page automatically refreshed every 10 minutes)

About weather observations | Map of weather stations | Latest weather observations for WA | Other Formats
Station Details ID: 009998 Name: NORTH WALPOLE Lat: -34.95 Lon: 116.72 Height: 73.0 m
Data from the previous 72 hours. | See also: Recent months at Walpole North
Date/Time
WST
Temp
°C
App
Temp
°C
Dew
Point
Rel
Hum
%
Delta-T
°C
Wind Press
QNH
hPa
Press
MSL
hPa
Rain
since 9 am
mm
Dir
 
Spd
km/h
Gust
km/h
Spd
kts
Gust
kts
25/05:00pm 14.7 13.9 13.9 95 0.4 NW 11 13 6 7 1019.4 1019.4 1.2
25/04:30pm 14.9 14.1 14.1 95 0.5 NNW 11 15 6 8 1019.2 1019.2 1.2
25/04:00pm 15.2 14.9 14.4 95 0.5 NW 9 11 5 6 1019.3 1019.3 1.2
25/03:30pm 15.1 14.1 14.5 96 0.3 NW 13 17 7 9 1019.3 1019.3 1.2
25/03:00pm 15.1 14.8 14.5 96 0.3 WNW 9 17 5 9 1019.5 1019.5 1.0
25/02:30pm 14.8 13.6 14.0 95 0.5 NW 13 20 7 11 1019.4 1019.4 1.0
25/02:00pm 15.3 14.6 14.3 94 0.6 WNW 11 13 6 7 1019.4 1019.4 0.8
25/01:30pm 14.3 12.0 13.0 92 0.7 WNW 17 24 9 13 1019.5 1019.5 0.8
25/01:00pm 15.5 14.8 13.3 87 1.2 WNW 9 13 5 7 1019.6 1019.6 0.0
25/12:30pm 16.2 14.5 12.6 79 2.0 W 13 22 7 12 1019.9 1019.8 0.0
25/12:00pm 17.0 15.0 12.7 76 2.4 WNW 15 20 8 11 1020.0 1019.9 0.0
25/11:30am 17.4 15.3 12.5 73 2.7 W 15 24 8 13 1020.3 1020.2 0.0
25/11:00am 18.3 15.4 12.3 68 3.3 NW 19 33 10 18 1020.5 1020.4 0.0
25/10:30am 16.9 13.7 11.2 69 3.1 WNW 19 26 10 14 1020.7 1020.6 0.0
25/10:00am 16.4 13.5 10.9 70 2.9 NW 17 28 9 15 1021.0 1020.9 0.0
25/09:30am 16.0 13.4 10.7 71 2.8 NW 15 22 8 12 1021.1 1021.0 0.0
25/09:00am 14.7 11.9 10.1 74 2.4 NW 15 20 8 11 1021.1 1021.0 0.0
25/08:30am 14.7 11.2 10.1 74 2.4 NW 19 26 10 14 1021.0 1020.9 0.0
25/08:00am 14.2 11.3 9.8 75 2.3 NW 15 20 8 11 1020.9 1020.8 0.0
25/07:30am 13.7 11.5 9.4 75 2.2 NNW 11 20 6 11 1020.7 1020.6 0.0
25/07:00am 13.8 10.5 9.5 75 2.2 NNW 17 24 9 13 1020.4 1020.3 0.0
25/06:30am 13.2 11.0 9.5 78 1.9 NNW 11 19 6 10 1020.4 1020.3 0.0
25/06:00am 13.5 11.4 9.6 77 2.0 NNW 11 19 6 10 1020.2 1020.1 0.0
25/05:30am 13.9 10.7 9.9 77 2.1 NNW 17 26 9 14 1020.1 1020.0 0.0
25/05:00am 14.2 11.1 10.4 78 2.0 NNW 17 26 9 14 1020.2 1020.1 0.0
25/04:30am 14.4 11.8 10.6 78 2.0 NNW 15 22 8 12 1020.4 1020.3 0.0
25/04:00am 14.3 12.0 10.5 78 2.0 NNW 13 20 7 11 1020.5 1020.4 0.0
25/03:30am 14.0 11.7 10.6 80 1.8 NNW 13 20 7 11 1020.6 1020.5 0.0
25/03:00am 13.9 11.6 10.5 80 1.8 NNW 13 19 7 10 1020.8 1020.7 0.0
25/02:30am 14.2 12.0 10.8 80 1.8 NNW 13 17 7 9 1020.9 1020.8 0.0
25/02:00am 13.9 12.2 11.2 84 1.4 NNW 11 17 6 9 1021.0 1020.9 0.0
25/01:30am 12.8 12.9 10.0 83 1.4 CALM 0 0 0 0 1020.8 1020.7 0.0
25/01:00am 13.2 13.2 9.8 80 1.7 CALM 0 0 0 0 1020.9 1020.8 0.0
25/12:30am 14.2 12.5 10.0 76 2.2 NNW 9 17 5 9 1020.9 1020.8 0.0
25/12:00am 14.6 11.6 10.8 78 2.0 NNW 17 24 9 13 1021.1 1021.0 0.0
 
Date/Time
WST
Temp
°C
App
Temp
°C
Dew
Point
Rel
Hum
%
Delta-T
°C
Wind Press
QNH
hPa
Press
MSL
hPa
Rain
since 9 am
mm
Dir
 
Spd
km/h
Gust
km/h
Spd
kts
Gust
kts
24/11:30pm 14.1 10.5 10.7 80 1.8 NW 20 28 11 15 1021.4 1021.3 0.0
24/11:00pm 13.1 11.4 9.9 81 1.6 WNW 9 15 5 8 1021.3 1021.2 0.0
24/10:30pm 14.3 13.2 10.5 78 2.0 N 7 13 4 7 1021.1 1021.0 0.0
24/10:00pm 14.0 13.3 11.5 85 1.3 N 6 13 3 7 1021.3 1021.2 0.0
24/09:30pm 13.8 13.0 11.0 83 1.5 W 6 15 3 8 1021.6 1021.5 0.0
24/09:00pm 15.1 13.1 10.3 73 2.5 NNW 11 17 6 9 1021.3 1021.2 0.0
24/08:30pm 15.1 13.6 10.7 75 2.3 NNW 9 13 5 7 1021.3 1021.2 0.0
24/08:00pm 14.7 14.7 11.3 80 1.8 NNW 2 9 1 5 1021.2 1021.1 0.0
24/07:30pm 14.5 15.1 11.8 84 1.5 CALM 0 6 0 3 1021.1 1021.0 0.0
24/07:00pm 14.2 14.4 11.7 85 1.3 NNE 2 9 1 5 1021.1 1021.0 0.0
24/06:30pm 14.6 14.3 12.6 88 1.1 N 6 13 3 7 1020.8 1020.7 0.0
24/06:00pm 13.7 14.2 11.7 88 1.1 CALM 0 0 0 0 1020.8 1020.7 0.0
24/05:30pm 14.1 14.7 11.8 86 1.2 CALM 0 0 0 0 1020.7 1020.6 0.0
24/05:00pm 14.8 15.5 12.1 84 1.5 CALM 0 0 0 0 1020.6 1020.5 0.0
24/04:30pm 15.0 15.7 12.1 83 1.6 CALM 0 0 0 0 1020.5 1020.4 0.0
24/04:00pm 15.4 14.6 11.8 79 1.9 SSW 7 11 4 6 1020.5 1020.4 0.0
24/03:30pm 16.4 15.8 11.8 74 2.5 N 6 11 3 6 1020.4 1020.3 0.0
24/03:00pm 16.4 16.1 11.3 72 2.7 N 4 11 2 6 1020.3 1020.2 0.0
24/02:30pm 16.3 15.4 11.2 72 2.7 NNE 7 13 4 7 1020.3 1020.2 0.0
24/02:00pm 16.2 15.7 10.9 71 2.8 NNE 4 11 2 6 1020.5 1020.4 0.0
24/01:30pm 16.7 15.8 11.4 71 2.9 N 7 15 4 8 1020.5 1020.4 0.0
24/01:00pm 15.9 14.6 11.3 74 2.5 NNW 9 17 5 9 1020.8 1020.7 0.0
24/12:30pm 15.8 14.5 11.4 75 2.4 NNW 9 17 5 9 1021.0 1020.9 0.0
24/12:00pm 16.6 15.3 12.4 76 2.3 NNW 11 17 6 9 1021.4 1021.3 0.0
24/11:30am 15.8 14.0 12.0 78 2.1 NNW 13 20 7 11 1021.7 1021.6 0.0
24/11:00am 15.9 14.6 12.6 81 1.8 NNW 11 20 6 11 1022.1 1022.0 0.0
24/10:30am 15.3 15.3 13.7 90 0.9 NNW 6 13 3 7 1022.2 1022.1 0.0
24/10:00am 13.9 14.9 13.3 96 0.3 CALM 0 0 0 0 1022.3 1022.2 0.0
24/09:30am 13.2 14.1 12.9 98 0.2 CALM 0 0 0 0 1022.2 1022.1 0.0
24/09:00am 12.3 12.6 12.1 99 0.1 NW 2 7 1 4 1022.1 1022.0 2.0
24/08:30am 11.8 12.3 11.6 99 0.1 CALM 0 0 0 0 1021.9 1021.8 2.0
24/08:00am 11.4 11.8 11.2 99 0.1 CALM 0 0 0 0 1021.6 1021.5 2.0
24/07:30am 10.6 10.7 10.3 98 0.2 CALM 0 0 0 0 1021.3 1021.2 2.0
24/07:00am 10.3 10.3 9.8 97 0.3 CALM 0 0 0 0 1021.2 1021.1 2.0
24/06:30am 10.6 10.7 10.0 96 0.3 CALM 0 0 0 0 1021.0 1020.9 2.0
24/06:00am 11.0 11.2 10.4 96 0.3 CALM 0 0 0 0 1020.9 1020.8 2.0
24/05:30am 10.8 10.9 10.2 96 0.3 CALM 0 0 0 0 1020.9 1020.8 2.0
24/05:00am 10.8 10.9 10.0 95 0.4 CALM 0 0 0 0 1020.9 1020.8 2.0
24/04:30am 10.5 10.4 9.4 93 0.6 CALM 0 0 0 0 1020.6 1020.5 2.0
24/04:00am 10.9 10.8 9.5 91 0.7 CALM 0 0 0 0 1020.3 1020.2 2.0
24/03:30am 11.5 11.5 9.9 90 0.8 CALM 0 0 0 0 1020.2 1020.1 2.0
24/03:00am 12.3 12.5 10.5 89 0.9 CALM 0 0 0 0 1020.2 1020.1 2.0
24/02:30am 12.6 12.8 10.7 88 1.0 CALM 0 0 0 0 1020.2 1020.1 2.0
24/02:00am 12.7 13.0 10.8 88 1.0 CALM 0 0 0 0 1020.0 1019.9 2.0
24/01:30am 12.8 13.0 10.7 87 1.1 CALM 0 0 0 0 1019.9 1019.8 2.0
24/01:00am 12.8 12.6 10.5 86 1.2 W 2 9 1 5 1019.9 1019.8 2.0
24/12:30am 13.0 12.0 10.2 83 1.5 WSW 6 13 3 7 1020.0 1019.9 2.0
24/12:00am 13.1 12.9 9.2 77 2.0 CALM 0 0 0 0 1020.0 1019.9 1.8
 
Date/Time
WST
Temp
°C
App
Temp
°C
Dew
Point
Rel
Hum
%
Delta-T
°C
Wind Press
QNH
hPa
Press
MSL
hPa
Rain
since 9 am
mm
Dir
 
Spd
km/h
Gust
km/h
Spd
kts
Gust
kts
23/11:30pm 13.4 13.3 9.3 76 2.1 CALM 0 0 0 0 1019.7 1019.7 1.8
23/11:00pm 13.6 13.1 9.3 75 2.2 W 2 7 1 4 1019.9 1019.8 1.8
23/10:30pm 13.8 13.6 9.0 73 2.4 CALM 0 0 0 0 1019.9 1019.8 1.8
23/10:00pm 14.0 12.8 9.4 74 2.4 WSW 6 9 3 5 1020.1 1020.0 1.8
23/09:30pm 13.6 13.5 9.6 77 2.1 CALM 0 0 0 0 1020.1 1020.0 1.8
23/09:00pm 14.0 13.7 10.0 77 2.1 W 2 9 1 5 1020.1 1020.0 1.8
23/08:30pm 14.0 12.9 10.6 80 1.8 WSW 7 9 4 5 1020.1 1020.0 1.8
23/08:00pm 13.7 13.2 10.7 82 1.6 W 4 7 2 4 1019.9 1019.8 1.8
23/07:30pm 13.9 12.4 10.7 81 1.7 SW 9 13 5 7 1019.5 1019.5 1.8
23/07:00pm 14.6 12.6 11.4 81 1.7 SW 13 22 7 12 1019.2 1019.2 1.6
23/06:30pm 14.5 13.3 11.6 83 1.6 SW 9 17 5 9 1018.9 1018.9 1.6
23/06:00pm 14.2 13.3 11.2 82 1.6 W 7 11 4 6 1018.5 1018.5 1.6
23/05:30pm 14.3 14.6 10.9 80 1.8 CALM 0 6 0 3 1018.1 1018.1 1.6
23/05:00pm 14.7 13.3 10.9 78 2.0 W 9 11 5 6 1017.9 1017.9 1.6
23/04:30pm 15.8 13.7 11.0 73 2.6 WSW 13 17 7 9 1017.6 1017.6 1.6
23/04:00pm 16.2 14.0 12.2 77 2.2 WSW 15 24 8 13 1017.4 1017.4 1.6
23/03:30pm 16.3 14.0 11.7 74 2.5 SW 15 24 8 13 1017.1 1017.1 1.6
23/03:00pm 16.5 14.8 12.3 76 2.3 SW 13 22 7 12 1017.0 1017.0 1.6
23/02:30pm 16.5 14.5 12.7 78 2.1 WSW 15 28 8 15 1016.8 1016.8 1.6
23/02:00pm 16.6 15.7 13.7 83 1.6 WSW 11 19 6 10 1016.6 1016.6 1.6
23/01:30pm 16.8 15.0 13.3 80 2.0 SW 15 22 8 12 1016.5 1016.5 1.6
23/01:00pm 17.4 16.9 15.9 91 0.9 SW 13 20 7 11 1016.5 1016.5 1.6
23/12:30pm 16.5 16.9 16.2 98 0.2 WNW 9 13 5 7 1016.7 1016.7 1.6
23/12:00pm 15.3 15.5 14.7 96 0.3 WNW 7 11 4 6 1016.9 1016.9 1.6
23/11:30am 15.3 14.9 14.2 93 0.6 W 9 15 5 8 1017.0 1017.0 1.2
23/11:00am 15.5 15.0 13.9 90 0.9 W 9 15 5 8 1016.9 1016.9 0.0
23/10:30am 15.4 12.6 12.7 84 1.5 WNW 19 26 10 14 1016.8 1016.8 0.0
23/10:00am 16.8 13.4 12.5 76 2.4 WNW 22 30 12 16 1016.5 1016.5 0.0
23/09:30am 16.1 12.5 11.9 76 2.3 NW 22 33 12 18 1016.2 1016.1 0.0
23/09:00am 15.7 11.6 11.3 75 2.4 NW 24 37 13 20 1016.4 1016.4 0.0
23/08:30am 14.9 11.4 10.9 77 2.1 NW 20 35 11 19 1016.1 1016.0 0.0
23/08:00am 14.2 11.1 10.4 78 2.0 NW 17 26 9 14 1016.1 1016.0 0.0
23/07:30am 13.0 10.0 9.4 79 1.8 NW 15 26 8 14 1015.8 1015.7 0.0
23/07:00am 13.1 10.5 9.4 78 1.9 NW 13 19 7 10 1015.9 1015.8 0.0
23/06:30am 13.3 10.7 9.4 77 2.0 NW 13 22 7 12 1015.6 1015.5 0.0
23/06:00am 13.1 10.0 9.0 76 2.1 NW 15 24 8 13 1015.7 1015.6 0.0
23/05:30am 12.6 10.8 9.4 81 1.6 NNW 9 17 5 9 1015.6 1015.5 0.0
23/05:00am 11.4 10.3 8.4 82 1.5 NW 4 13 2 7 1015.4 1015.3 0.0
23/04:30am 11.0 10.5 7.9 81 1.5 CALM 0 2 0 1 1015.4 1015.3 0.0
23/04:00am 11.3 10.9 8.3 82 1.5 CALM 0 0 0 0 1015.4 1015.3 0.0
23/03:30am 11.8 10.9 9.4 85 1.2 N 4 11 2 6 1015.4 1015.3 0.0
23/03:00am 10.5 10.1 8.3 86 1.1 CALM 0 0 0 0 1015.7 1015.6 0.0
23/02:30am 10.3 9.8 7.9 85 1.2 CALM 0 0 0 0 1016.1 1016.0 0.0
23/02:00am 11.2 10.9 8.6 84 1.3 CALM 0 2 0 1 1016.2 1016.1 0.0
23/01:30am 11.1 10.1 8.7 85 1.2 N 4 9 2 5 1016.5 1016.5 0.0
23/01:00am 11.7 9.8 9.1 84 1.3 NNE 9 13 5 7 1016.7 1016.7 0.0
23/12:30am 11.4 9.8 8.6 83 1.4 NE 7 11 4 6 1016.9 1016.9 0.0
23/12:00am 12.1 10.7 8.9 81 1.6 NE 6 11 3 6 1017.2 1017.2 0.0
 
Date/Time
WST
Temp
°C
App
Temp
°C
Dew
Point
Rel
Hum
%
Delta-T
°C
Wind Press
QNH
hPa
Press
MSL
hPa
Rain
since 9 am
mm
Dir
 
Spd
km/h
Gust
km/h
Spd
kts
Gust
kts
22/11:30pm 12.9 11.2 9.7 81 1.6 NNE 9 13 5 7 1017.2 1017.2 0.0
22/11:00pm 12.8 10.9 9.1 78 1.9 N 9 15 5 8 1017.5 1017.5 0.0
22/10:30pm 13.2 10.5 9.1 76 2.1 NNE 13 19 7 10 1017.8 1017.8 0.0
22/10:00pm 13.0 10.2 8.7 75 2.2 NNE 13 17 7 9 1018.0 1018.0 0.0
22/09:30pm 13.3 10.1 8.6 73 2.4 NNE 15 20 8 11 1018.1 1018.1 0.0
22/09:00pm 13.8 10.7 8.8 72 2.5 NNE 15 20 8 11 1018.2 1018.2 0.0
22/08:30pm 13.7 11.4 9.0 73 2.4 NNE 11 17 6 9 1018.3 1018.3 0.0
22/08:00pm 13.5 11.1 8.8 73 2.4 NNE 11 15 6 8 1018.2 1018.2 0.0
22/07:30pm 14.2 11.5 9.0 71 2.6 NNE 13 20 7 11 1017.9 1017.9 0.0
22/07:00pm 14.6 11.9 9.0 69 2.9 NE 13 20 7 11 1017.8 1017.8 0.0
22/06:30pm 14.2 12.3 9.2 72 2.6 NE 9 13 5 7 1017.9 1017.9 0.0
22/06:00pm 13.6 13.3 8.7 72 2.5 CALM 0 0 0 0 1017.8 1017.8 0.0
22/05:30pm 14.1 13.9 8.9 71 2.6 CALM 0 0 0 0 1017.7 1017.7 0.0

Other Formats:

Comma delimited format used in spreadsheet applications
http://www.bom.gov.au/fwo/IDW60801/IDW60801.95647.axf

JavaScript Object Notation format (JSON) in row-major order
http://www.bom.gov.au/fwo/IDW60801/IDW60801.95647.json